Time;durP1;ratioP1;P1;durP2;ratioP2;P2;SDS_P1;SDS_P2;PMS_P1;PMS_P2;Temp;Humidity;BMP_temperature;BMP_pressure;BME280_temperature;BME280_humidity;BME280_pressure;Samples;Min_cycle;Max_cycle;Signal;HPM_P1;HPM_P2
2022/07/21 00:01:43;;;;;;;;;6.25;3.00;;;;;22.24;59.50;101732.78;4961660;28;45475;-87
2022/07/21 00:04:08;;;;;;;;;4.00;4.00;;;;;22.21;59.45;101731.19;4979084;28;45617;-86
2022/07/21 00:06:34;;;;;;;;;4.00;3.00;;;;;22.17;59.67;101712.91;4960906;28;61723;-87
2022/07/21 00:08:59;;;;;;;;;3.00;3.00;;;;;22.16;59.75;101721.81;4978957;28;45481;-87
2022/07/21 00:11:24;;;;;;;;;4.00;3.50;;;;;22.13;59.54;101716.69;4978935;28;45241;-86
2022/07/21 00:13:50;;;;;;;;;2.00;2.00;;;;;22.14;60.06;101716.59;4978839;28;49970;-87
2022/07/21 00:16:15;;;;;;;;;2.50;2.00;;;;;22.14;59.73;101713.94;4977550;28;45594;-87
2022/07/21 00:18:40;;;;;;;;;2.50;2.00;;;;;22.16;59.84;101713.88;4961562;28;45687;-86
2022/07/21 00:21:06;;;;;;;;;4.00;4.00;;;;;22.15;59.55;101720.94;4978005;28;69084;-88
2022/07/21 00:23:31;;;;;;;;;2.50;2.50;;;;;22.18;59.95;101723.41;4977603;28;45380;-87
2022/07/21 00:25:56;;;;;;;;;4.75;4.75;;;;;22.19;60.00;101717.19;4960378;28;59271;-86
2022/07/21 00:28:22;;;;;;;;;7.50;4.00;;;;;22.22;60.20;101718.78;4977418;28;50428;-86
2022/07/21 00:30:47;;;;;;;;;2.50;2.50;;;;;22.22;59.91;101713.47;4977715;28;45241;-86
2022/07/21 00:33:13;;;;;;;;;4.25;4.25;;;;;22.16;59.75;101711.22;4976868;28;52593;-86
2022/07/21 00:35:38;;;;;;;;;4.00;4.00;;;;;22.12;60.01;101718.50;4977830;28;64322;-87
2022/07/21 00:38:03;;;;;;;;;4.50;4.00;;;;;22.05;60.05;101717.19;4977507;28;45403;-88
2022/07/21 00:40:29;;;;;;;;;5.25;3.50;;;;;21.99;60.08;101717.53;4976887;28;52688;-86
2022/07/21 00:42:55;;;;;;;;;2.75;2.75;;;;;21.98;60.57;101721.16;4978620;28;45632;-87
2022/07/21 00:45:20;;;;;;;;;5.25;4.00;;;;;21.97;60.89;101711.47;4978456;28;47219;-87
2022/07/21 00:47:46;;;;;;;;;4.50;4.00;;;;;21.97;60.26;101720.31;4977025;28;53950;-87
2022/07/21 00:50:15;;;;;;;;;3.00;2.75;;;;;21.96;60.18;101715.94;4977876;28;56813;-87
2022/07/21 00:52:41;;;;;;;;;3.25;3.00;;;;;21.92;60.20;101711.78;4978811;28;45244;-87
2022/07/21 00:55:09;;;;;;;;;2.75;2.50;;;;;21.92;60.65;101710.94;4977907;28;45233;-86
2022/07/21 00:57:35;;;;;;;;;2.00;2.00;;;;;21.92;60.86;101711.78;4978253;28;45338;-86
2022/07/21 01:00:01;;;;;;;;;3.00;3.00;;;;;21.90;60.67;101720.75;4978507;28;45426;-86
2022/07/21 01:02:28;;;;;;;;;2.00;2.00;;;;;21.84;60.23;101711.38;4976984;28;45404;-88
2022/07/21 01:04:53;;;;;;;;;3.00;3.00;;;;;21.80;60.72;101710.75;4976977;28;46420;-87
2022/07/21 01:07:20;;;;;;;;;2.75;2.75;;;;;21.79;60.82;101710.81;4977080;28;45353;-88
2022/07/21 01:09:45;;;;;;;;;3.25;3.00;;;;;21.81;60.65;101716.88;4977130;28;45429;-88
2022/07/21 01:12:11;;;;;;;;;3.00;3.00;;;;;21.79;61.04;101719.63;4976964;28;56743;-89
2022/07/21 01:14:37;;;;;;;;;3.25;3.00;;;;;21.75;61.00;101712.81;4960480;28;64623;-87
2022/07/21 01:17:03;;;;;;;;;3.00;3.00;;;;;21.72;60.74;101715.63;4976772;28;45391;-87
2022/07/21 01:19:29;;;;;;;;;3.00;2.00;;;;;21.68;61.33;101711.47;4977025;28;45329;-88
2022/07/21 01:21:54;;;;;;;;;4.50;2.75;;;;;21.62;61.19;101714.50;4978522;28;45379;-89
2022/07/21 01:24:20;;;;;;;;;2.00;2.00;;;;;21.59;61.36;101720.81;4976763;28;45435;-88
2022/07/21 01:26:47;;;;;;;;;5.00;3.00;;;;;21.57;61.26;101720.06;4977691;28;48495;-88
2022/07/21 01:29:13;;;;;;;;;4.75;4.00;;;;;21.53;61.62;101715.91;4976798;28;45426;-86
2022/07/21 01:31:41;;;;;;;;;5.00;5.00;;;;;21.48;61.83;101702.06;4976447;28;45590;-85
2022/07/21 01:34:07;;;;;;;;;3.00;3.00;;;;;21.46;61.69;101707.44;4976525;28;47293;-86
2022/07/21 01:36:33;;;;;;;;;4.75;3.25;;;;;21.43;62.42;101704.09;4976364;28;45425;-86
2022/07/21 01:41:43;;;;;;;;;5.00;4.00;;;;;21.37;62.08;101693.88;4977881;28;45285;-86
2022/07/21 01:44:10;;;;;;;;;5.00;4.00;;;;;21.34;62.66;101688.75;4976600;28;46943;-86
2022/07/21 01:46:38;;;;;;;;;3.75;3.75;;;;;21.33;62.54;101687.06;4976385;28;45708;-86
2022/07/21 01:49:04;;;;;;;;;7.00;4.00;;;;;21.31;62.62;101696.91;4976449;28;45372;-87
2022/07/21 01:51:30;;;;;;;;;4.00;3.00;;;;;21.26;62.64;101694.50;4976441;28;45401;-87
2022/07/21 01:53:56;;;;;;;;;5.00;4.00;;;;;21.24;62.08;101702.53;4976960;28;47272;-87
2022/07/21 01:56:23;;;;;;;;;4.25;4.25;;;;;21.21;62.82;101702.72;4976150;28;45596;-86
2022/07/21 01:58:51;;;;;;;;;4.00;3.25;;;;;21.19;63.09;101704.63;4977488;28;45356;-86
2022/07/21 02:01:17;;;;;;;;;4.00;3.00;;;;;21.20;63.17;101708.97;4977365;28;45529;-86
2022/07/21 02:03:44;;;;;;;;;6.25;5.00;;;;;21.20;62.95;101716.91;4975635;28;45467;-86
2022/07/21 02:06:09;;;;;;;;;6.00;4.75;;;;;21.20;63.06;101724.00;4975903;28;45792;-86
2022/07/21 02:08:35;;;;;;;;;5.00;5.00;;;;;21.19;63.32;101716.97;4975654;28;45324;-86
2022/07/21 02:11:01;;;;;;;;;8.75;5.50;;;;;21.17;62.96;101714.44;4976330;28;45309;-86
2022/07/21 02:13:26;;;;;;;;;6.50;5.00;;;;;21.14;63.12;101717.25;4975712;28;45392;-86
2022/07/21 02:15:51;;;;;;;;;6.00;6.00;;;;;21.12;63.28;101710.34;4975846;28;45182;-86
2022/07/21 02:18:17;;;;;;;;;5.75;5.75;;;;;21.08;63.45;101714.97;4975850;28;45264;-86
2022/07/21 02:20:44;;;;;;;;;7.00;6.00;;;;;21.06;63.27;101716.84;4977094;28;45232;-85
2022/07/21 02:23:10;;;;;;;;;8.50;6.50;;;;;21.04;63.26;101713.44;4976629;28;46193;-85
2022/07/21 02:25:35;;;;;;;;;4.75;4.75;;;;;21.05;63.23;101721.28;4975492;28;45974;-85
2022/07/21 02:28:01;;;;;;;;;6.25;6.25;;;;;21.00;63.35;101712.75;4976278;28;62535;-85
2022/07/21 02:30:26;;;;;;;;;9.75;8.00;;;;;20.99;63.58;101719.00;4976548;28;45328;-86
2022/07/21 02:32:51;;;;;;;;;7.50;7.00;;;;;20.95;63.33;101722.78;4976787;28;52676;-85
2022/07/21 02:35:17;;;;;;;;;8.25;6.25;;;;;20.92;64.01;101722.94;4976399;28;57735;-86
2022/07/21 02:37:42;;;;;;;;;5.25;3.25;;;;;20.90;63.52;101722.19;4975221;28;45434;-85
2022/07/21 02:40:09;;;;;;;;;6.00;5.75;;;;;20.88;63.93;101729.34;4976656;28;45295;-85
2022/07/21 02:42:35;;;;;;;;;7.50;5.00;;;;;20.86;64.11;101725.94;4976423;28;47276;-86
2022/07/21 02:45:00;;;;;;;;;8.00;8.00;;;;;20.86;64.03;101725.94;4976255;28;56773;-86
2022/07/21 02:47:25;;;;;;;;;5.25;5.00;;;;;20.86;63.71;101729.44;4975386;28;45304;-85
2022/07/21 02:49:51;;;;;;;;;8.75;7.50;;;;;20.83;63.72;101731.41;4975363;28;45378;-85
2022/07/21 02:52:16;;;;;;;;;7.25;6.75;;;;;20.84;63.72;101730.47;4973885;28;73395;-86
2022/07/21 02:54:41;;;;;;;;;7.75;6.25;;;;;20.83;63.72;101734.88;4975701;28;64934;-85
2022/07/21 02:57:07;;;;;;;;;11.75;7.75;;;;;20.83;63.48;101740.19;4974555;28;64904;-85
2022/07/21 02:59:32;;;;;;;;;7.00;6.50;;;;;20.79;63.62;101737.81;4975215;28;45261;-85
2022/07/21 03:01:57;;;;;;;;;8.00;8.00;;;;;20.72;64.01;101736.44;4976301;28;53424;-86
2022/07/21 03:04:23;;;;;;;;;6.25;6.25;;;;;20.68;63.62;101733.09;4975339;28;73708;-86
2022/07/21 03:06:48;;;;;;;;;9.75;7.75;;;;;20.67;63.58;101736.69;4974841;28;45382;-87
2022/07/21 03:09:14;;;;;;;;;7.25;6.25;;;;;20.65;63.80;101741.19;4976643;28;45378;-86
2022/07/21 03:11:39;;;;;;;;;12.00;9.25;;;;;20.57;64.00;101741.59;4976249;28;46631;-87
2022/07/21 03:14:04;;;;;;;;;13.00;8.50;;;;;20.52;64.27;101742.78;4974979;28;51853;-88
2022/07/21 03:16:30;;;;;;;;;10.00;9.00;;;;;20.49;64.16;101743.81;4975256;28;45379;-86
2022/07/21 03:18:57;;;;;;;;;9.25;8.75;;;;;20.47;64.46;101743.91;4975939;28;45291;-85
2022/07/21 03:21:23;;;;;;;;;10.00;9.00;;;;;20.45;64.21;101745.78;4974887;28;45425;-86
2022/07/21 03:23:48;;;;;;;;;13.00;9.00;;;;;20.42;63.91;101745.94;4974895;28;45372;-86
2022/07/21 03:26:15;;;;;;;;;12.00;9.75;;;;;20.37;64.51;101747.97;4958341;28;49273;-86
2022/07/21 03:28:42;;;;;;;;;9.75;9.75;;;;;20.34;64.60;101755.22;4975021;28;45183;-87
2022/07/21 03:31:07;;;;;;;;;12.75;12.00;;;;;20.33;64.29;101761.47;4974845;28;46504;-86
2022/07/21 03:33:33;;;;;;;;;12.75;10.75;;;;;20.31;64.53;101765.03;4975552;28;45453;-86
2022/07/21 03:35:59;;;;;;;;;11.50;10.50;;;;;20.31;64.91;101759.72;4976077;28;45362;-86
2022/07/21 03:38:24;;;;;;;;;9.75;9.00;;;;;20.28;64.66;101757.28;4976044;28;45403;-86
2022/07/21 03:40:50;;;;;;;;;11.00;11.00;;;;;20.31;64.69;101764.19;4974707;28;45444;-86
2022/07/21 03:43:16;;;;;;;;;10.00;9.50;;;;;20.33;64.75;101761.47;4975616;28;51875;-86
2022/07/21 03:45:41;;;;;;;;;14.50;12.50;;;;;20.31;65.03;101753.59;4974803;28;45403;-86
2022/07/21 03:48:09;;;;;;;;;13.00;12.00;;;;;20.30;64.95;101760.69;4974100;28;47080;-86
2022/07/21 03:50:36;;;;;;;;;15.00;13.00;;;;;20.30;64.86;101760.69;4974419;28;46760;-86
2022/07/21 03:53:02;;;;;;;;;12.25;10.50;;;;;20.30;64.78;101765.13;4974629;28;45452;-86
2022/07/21 03:55:28;;;;;;;;;12.75;12.25;;;;;20.28;64.80;101765.22;4958402;28;45353;-86
2022/07/21 03:57:56;;;;;;;;;14.75;10.25;;;;;20.31;64.95;101761.53;4974903;28;45514;-86
2022/07/21 04:00:24;;;;;;;;;13.50;10.50;;;;;20.36;65.47;101770.09;4974497;28;46156;-86
2022/07/21 04:02:50;;;;;;;;;12.00;11.25;;;;;20.37;65.01;101770.94;4957830;28;45806;-87
2022/07/21 04:05:17;;;;;;;;;11.00;11.00;;;;;20.38;65.33;101770.00;4975210;28;53423;-86
2022/07/21 04:07:44;;;;;;;;;15.25;12.50;;;;;20.39;65.09;101775.22;4976657;28;45437;-86
2022/07/21 04:10:13;;;;;;;;;17.00;14.00;;;;;20.39;64.91;101771.69;4977962;28;47496;-86
2022/07/21 04:12:39;;;;;;;;;12.25;11.00;;;;;20.41;64.79;101783.03;4977721;28;45794;-85
2022/07/21 04:15:06;;;;;;;;;16.75;14.75;;;;;20.39;64.94;101785.78;4977733;28;45667;-86
2022/07/21 04:17:31;;;;;;;;;15.75;11.25;;;;;20.41;64.79;101783.03;4978636;28;45231;-86
2022/07/21 04:19:56;;;;;;;;;14.50;12.25;;;;;20.41;64.79;101775.97;4977890;28;71545;-86
2022/07/21 04:22:22;;;;;;;;;16.00;15.00;;;;;20.43;64.80;101774.09;4978345;28;55273;-85
2022/07/21 04:24:47;;;;;;;;;12.00;12.00;;;;;20.47;64.80;101780.09;4977123;28;55227;-84
2022/07/21 04:27:12;;;;;;;;;17.25;15.25;;;;;20.52;64.78;101788.59;4977519;28;45305;-85
2022/07/21 04:29:38;;;;;;;;;14.50;14.50;;;;;20.53;64.33;101789.47;4976549;28;70692;-85
2022/07/21 04:32:04;;;;;;;;;16.75;13.00;;;;;20.53;64.41;101798.25;4977145;28;45773;-84
2022/07/21 04:34:29;;;;;;;;;19.50;11.00;;;;;20.56;64.61;101789.28;4977484;28;45369;-85
2022/07/21 04:36:56;;;;;;;;;15.25;14.50;;;;;20.53;64.78;101786.84;4978599;28;45276;-85
2022/07/21 04:39:22;;;;;;;;;18.25;17.00;;;;;20.54;64.41;101792.03;4977321;28;46165;-85
2022/07/21 04:41:47;;;;;;;;;19.00;16.00;;;;;20.55;64.33;101785.81;4977399;28;72943;-85
2022/07/21 04:44:13;;;;;;;;;19.75;16.25;;;;;20.55;64.30;101793.72;4977359;28;45376;-85
2022/07/21 04:46:38;;;;;;;;;16.25;15.25;;;;;20.53;64.27;101789.47;4978002;28;45345;-85
2022/07/21 04:49:04;;;;;;;;;19.00;16.25;;;;;20.52;64.52;101790.41;4978117;28;56162;-86
2022/07/21 04:51:29;;;;;;;;;21.25;18.00;;;;;20.50;64.56;101794.00;4960473;28;45795;-85
2022/07/21 04:53:54;;;;;;;;;17.00;15.25;;;;;20.49;64.57;101792.28;4978187;28;48415;-85
2022/07/21 04:56:20;;;;;;;;;17.00;15.50;;;;;20.45;64.56;101793.38;4977552;28;64320;-85
2022/07/21 04:58:45;;;;;;;;;17.50;17.00;;;;;20.47;65.06;101796.78;4978107;28;46691;-84
2022/07/21 05:01:10;;;;;;;;;24.00;18.50;;;;;20.48;64.91;101803.78;4977291;28;60411;-85
2022/07/21 05:03:36;;;;;;;;;21.00;17.50;;;;;20.47;64.93;101802.09;4977178;28;62159;-84
2022/07/21 05:06:01;;;;;;;;;21.75;17.75;;;;;20.47;65.10;101802.09;4976554;28;58704;-85
2022/07/21 05:08:27;;;;;;;;;16.00;14.25;;;;;20.49;65.03;101805.50;4976306;28;61098;-84
2022/07/21 05:10:53;;;;;;;;;20.00;16.00;;;;;20.48;64.55;101803.78;4976870;28;45869;-85
2022/07/21 05:13:18;;;;;;;;;18.25;16.25;;;;;20.50;64.92;101801.06;4960706;28;45337;-86
2022/07/21 05:15:43;;;;;;;;;23.75;16.50;;;;;20.50;64.83;101801.06;4976685;28;45392;-85
2022/07/21 05:18:09;;;;;;;;;23.50;18.25;;;;;20.57;65.15;101805.09;4976729;28;49470;-85
2022/07/21 05:20:34;;;;;;;;;18.50;18.00;;;;;20.63;64.54;101814.50;4977446;28;56097;-85
2022/07/21 05:23:00;;;;;;;;;16.75;15.75;;;;;20.66;64.68;101812.53;4977460;28;53437;-85
2022/07/21 05:25:26;;;;;;;;;19.75;16.75;;;;;20.67;64.90;101816.03;4977713;28;45345;-85
2022/07/21 05:27:51;;;;;;;;;19.00;15.00;;;;;20.64;64.53;101809.13;4975606;28;75549;-85
2022/07/21 05:30:16;;;;;;;;;14.50;13.75;;;;;20.66;64.66;101812.53;4975446;28;63275;-84
2022/07/21 05:32:42;;;;;;;;;16.75;14.50;;;;;20.73;64.61;101810.44;4977865;28;45848;-85
2022/07/21 05:35:10;;;;;;;;;18.25;15.50;;;;;20.76;64.17;101809.41;4977361;28;50506;-85
2022/07/21 05:37:37;;;;;;;;;17.00;16.75;;;;;20.84;64.82;101802.75;4977507;28;46306;-85
2022/07/21 05:40:03;;;;;;;;;20.75;16.50;;;;;20.88;64.26;101819.31;4977639;28;45321;-85
2022/07/21 05:42:29;;;;;;;;;16.25;15.50;;;;;20.90;64.21;101808.66;4977747;28;45367;-85
2022/07/21 05:44:55;;;;;;;;;19.50;19.00;;;;;20.88;64.22;101811.38;4975320;28;61156;-85
2022/07/21 05:47:20;;;;;;;;;18.75;15.00;;;;;20.86;63.70;101816.75;4976362;28;46222;-85
2022/07/21 05:49:45;;;;;;;;;20.75;18.25;;;;;20.83;64.36;101818.72;4975759;28;52364;-85
2022/07/21 05:52:11;;;;;;;;;19.25;18.75;;;;;20.80;64.39;101821.53;4977444;28;45450;-85
2022/07/21 05:54:36;;;;;;;;;20.75;18.00;;;;;20.82;64.02;101823.16;4977009;28;54332;-84
2022/07/21 05:57:02;;;;;;;;;18.00;15.00;;;;;20.80;64.12;101821.53;4975824;28;51972;-85
2022/07/21 05:59:28;;;;;;;;;22.50;18.00;;;;;20.84;64.51;101826.56;4976969;28;45427;-85
2022/07/21 06:01:53;;;;;;;;;16.50;15.00;;;;;20.90;64.39;101824.53;4979298;28;45308;-85
2022/07/21 06:04:18;;;;;;;;;26.25;18.00;;;;;20.97;64.31;101826.75;4978728;28;48789;-85
2022/07/21 06:06:44;;;;;;;;;18.75;16.00;;;;;21.02;64.06;101831.78;4996495;28;53886;-86
2022/07/21 06:09:09;;;;;;;;;21.00;18.25;;;;;21.12;63.99;101835.63;4996708;28;45353;-85
2022/07/21 06:11:34;;;;;;;;;17.75;17.75;;;;;21.21;63.74;101834.25;4996872;28;45440;-86
2022/07/21 06:14:00;;;;;;;;;18.50;16.25;;;;;21.23;63.53;101833.22;4996645;28;45319;-85
2022/07/21 06:16:25;;;;;;;;;19.50;16.50;;;;;21.28;63.75;101830.31;4996161;28;53608;-86
2022/07/21 06:18:50;;;;;;;;;21.25;20.00;;;;;21.31;63.22;101835.44;4996754;28;45351;-85
2022/07/21 06:21:17;;;;;;;;;20.25;17.00;;;;;21.33;63.45;101836.19;4996413;28;50663;-85
2022/07/21 06:23:43;;;;;;;;;19.50;15.75;;;;;21.35;63.45;101830.81;4996528;28;45526;-85
2022/07/21 06:26:08;;;;;;;;;18.25;16.00;;;;;21.38;63.01;101830.66;4978776;28;46189;-84
2022/07/21 06:28:33;;;;;;;;;21.00;15.75;;;;;21.39;63.47;101835.84;4977889;28;66802;-85
2022/07/21 06:30:59;;;;;;;;;21.50;19.25;;;;;21.42;63.11;101835.69;4978186;28;45324;-85
2022/07/21 06:33:24;;;;;;;;;17.75;15.00;;;;;21.47;62.77;101846.06;4978872;28;45447;-85
2022/07/21 06:35:50;;;;;;;;;17.50;15.25;;;;;21.47;62.97;101851.34;4994948;28;48838;-85
2022/07/21 06:38:15;;;;;;;;;19.25;16.00;;;;;21.44;62.73;101848.84;4996532;28;45547;-85
2022/07/21 06:40:41;;;;;;;;;22.00;17.00;;;;;21.49;62.98;101843.28;4996429;28;45380;-85
2022/07/21 06:43:06;;;;;;;;;20.00;15.25;;;;;21.56;62.90;101845.53;4995893;28;45543;-85
2022/07/21 06:45:31;;;;;;;;;21.00;17.25;;;;;21.64;62.81;101848.56;4996281;28;46420;-85
2022/07/21 06:48:05;;;;;;;;;17.25;15.25;;;;;21.77;62.49;101843.41;4995801;28;56298;-85
2022/07/21 06:50:30;;;;;;;;;20.75;17.50;;;;;21.81;62.13;101849.38;4996217;28;45359;-85
2022/07/21 06:52:55;;;;;;;;;17.75;16.00;;;;;21.83;62.07;101842.19;4996313;28;45363;-86
2022/07/21 06:55:21;;;;;;;;;19.50;16.50;;;;;21.88;62.06;101842.78;4978025;28;57915;-85
2022/07/21 06:57:46;;;;;;;;;15.50;14.50;;;;;21.90;61.88;101840.91;4995832;28;45358;-86
2022/07/21 07:00:12;;;;;;;;;17.75;17.00;;;;;21.92;61.76;101852.25;4996352;28;46174;-86
2022/07/21 07:02:37;;;;;;;;;17.75;16.75;;;;;21.94;61.73;101845.06;4978313;28;45297;-86
2022/07/21 07:05:03;;;;;;;;;23.00;17.00;;;;;22.01;61.53;101848.22;4995734;28;46408;-85
2022/07/21 07:07:30;;;;;;;;;18.50;17.50;;;;;22.06;61.56;101850.56;4996190;28;45469;-84
2022/07/21 07:09:56;;;;;;;;;18.00;16.50;;;;;22.13;61.61;101858.06;4996366;28;45216;-86
2022/07/21 07:12:21;;;;;;;;;24.00;20.25;;;;;22.16;61.58;101857.91;4978192;28;45257;-85
2022/07/21 07:14:46;;;;;;;;;22.75;18.00;;;;;22.17;61.37;101864.03;4978141;28;45254;-85
2022/07/21 07:17:18;;;;;;;;;23.75;17.25;;;;;22.20;61.20;101861.22;4978153;28;56921;-88
2022/07/21 07:19:43;;;;;;;;;20.50;18.25;;;;;22.20;61.37;101870.00;4982790;28;45432;-90
2022/07/21 07:22:08;;;;;;;;;20.25;17.50;;;;;22.18;60.80;101869.25;4963597;28;58733;-83
2022/07/21 07:24:34;;;;;;;;;21.75;19.00;;;;;22.16;61.14;101865.84;4991285;28;69020;-86
2022/07/21 07:26:59;;;;;;;;;22.25;19.00;;;;;22.21;61.04;101865.56;4977216;28;45733;-87
2022/07/21 07:29:24;;;;;;;;;18.00;18.00;;;;;22.34;61.05;101869.22;4961276;28;61397;-88
2022/07/21 07:31:50;;;;;;;;;20.00;17.25;;;;;22.50;60.96;101870.94;4959241;28;45504;-92
2022/07/21 07:34:18;;;;;;;;;22.00;20.25;;;;;22.63;60.69;101869.22;4958720;28;48078;-89
2022/07/21 07:36:44;;;;;;;;;26.25;18.00;;;;;22.77;59.75;101871.88;4984394;28;45840;-90
2022/07/21 07:39:09;;;;;;;;;21.50;18.75;;;;;22.83;59.94;101870.63;4978275;28;45736;-93
2022/07/21 07:41:35;;;;;;;;;23.00;20.00;;;;;22.95;59.42;101869.84;4978034;28;45477;-86
2022/07/21 07:44:00;;;;;;;;;21.50;17.50;;;;;23.06;59.62;101874.50;4977439;28;58116;-85
2022/07/21 07:46:26;;;;;;;;;22.75;18.00;;;;;23.14;59.05;101871.38;4978452;28;59395;-83
2022/07/21 07:48:52;;;;;;;;;20.00;17.25;;;;;23.16;59.27;101869.47;4974981;28;45492;-84
2022/07/21 07:51:17;;;;;;;;;19.50;17.25;;;;;23.25;59.35;101873.34;4980644;28;45506;-84
2022/07/21 07:53:42;;;;;;;;;21.00;19.00;;;;;23.34;58.53;101883.38;4962592;28;46228;-84
2022/07/21 07:56:08;;;;;;;;;20.25;18.25;;;;;23.38;58.38;101884.88;4997232;28;69996;-84
2022/07/21 07:58:34;;;;;;;;;24.00;21.75;;;;;23.42;57.89;101877.53;4980933;28;45786;-84
2022/07/21 08:00:59;;;;;;;;;22.00;19.00;;;;;23.44;58.29;101884.50;4980427;28;45609;-84
2022/07/21 08:03:26;;;;;;;;;21.25;20.50;;;;;23.50;58.24;101885.88;4996487;28;45493;-84
2022/07/21 08:05:52;;;;;;;;;14.75;14.75;;;;;23.59;58.33;101885.28;5000318;28;45952;-84
2022/07/21 08:08:17;;;;;;;;;21.50;18.50;;;;;23.73;58.06;101895.00;4983848;28;45429;-85
2022/07/21 08:10:45;;;;;;;;;26.75;22.00;;;;;23.78;57.08;101885.75;5000087;28;45332;-83
2022/07/21 08:13:12;;;;;;;;;25.25;21.50;;;;;23.78;56.83;101892.88;5018172;28;46289;-84
2022/07/21 08:15:38;;;;;;;;;24.75;23.50;;;;;23.72;56.49;101891.50;4999886;28;45925;-84
2022/07/21 08:18:04;;;;;;;;;27.75;22.50;;;;;23.80;57.05;101888.34;4999494;28;45348;-83
2022/07/21 08:20:29;;;;;;;;;24.00;19.50;;;;;23.90;56.80;101892.09;5001600;28;45348;-84
2022/07/21 08:22:54;;;;;;;;;27.75;21.50;;;;;23.99;56.57;101890.63;5016888;28;70005;-85
2022/07/21 08:25:20;;;;;;;;;27.25;22.00;;;;;24.06;56.07;101899.03;4998712;28;65877;-85
2022/07/21 08:27:45;;;;;;;;;26.25;20.75;;;;;24.10;56.02;101898.72;5000174;28;45305;-84
2022/07/21 08:30:11;;;;;;;;;26.50;21.75;;;;;24.21;56.11;101891.81;4998026;28;46272;-84
2022/07/21 08:32:37;;;;;;;;;17.75;17.00;;;;;24.25;55.59;101901.28;4980244;28;47228;-84
2022/07/21 08:35:08;;;;;;;;;31.50;21.50;;;;;24.23;55.16;101900.53;4998235;28;45687;-84
2022/07/21 08:37:34;;;;;;;;;24.50;20.50;;;;;24.31;55.93;101906.19;4991983;28;45508;-84
2022/07/21 08:39:59;;;;;;;;;24.50;19.00;;;;;24.45;55.23;101902.59;4953801;28;45565;-84
2022/07/21 08:42:26;;;;;;;;;25.25;20.50;;;;;24.41;55.51;101904.59;4973437;28;75535;-86
2022/07/21 08:44:52;;;;;;;;;27.00;20.00;;;;;24.44;54.99;101904.41;4997097;28;45414;-90
2022/07/21 08:47:17;;;;;;;;;25.00;21.25;;;;;24.50;54.66;101895.97;4979905;28;61778;-86
2022/07/21 08:49:46;;;;;;;;;25.50;21.50;;;;;24.53;54.87;101903.78;4996854;28;63831;-87
2022/07/21 08:52:11;;;;;;;;;27.25;20.00;;;;;24.60;54.59;101906.88;4967753;28;47470;-86
2022/07/21 08:54:36;;;;;;;;;20.25;19.00;;;;;24.74;54.41;101908.56;5015295;28;63607;-87
2022/07/21 08:57:02;;;;;;;;;27.50;23.00;;;;;24.90;54.67;101898.50;4976086;28;45649;-87
2022/07/21 08:59:27;;;;;;;;;21.00;18.25;;;;;25.13;53.52;101901.34;4978728;28;45631;-88
2022/07/21 09:01:53;;;;;;;;;22.25;19.75;;;;;25.19;52.91;101898.25;4978500;28;46753;-87
2022/07/21 09:04:33;;;;;;;;;29.75;23.75;;;;;25.29;53.13;101898.44;4977665;28;54157;-85
2022/07/21 09:07:02;;;;;;;;;26.75;19.75;;;;;25.28;52.74;101896.75;4995538;28;45412;-86
2022/07/21 09:09:28;;;;;;;;;22.25;21.75;;;;;25.25;52.80;101905.81;4985325;28;45515;-87
2022/07/21 09:11:55;;;;;;;;;23.50;20.75;;;;;25.12;52.75;101897.81;4995933;28;46383;-86
2022/07/21 09:14:28;;;;;;;;;23.75;21.00;;;;;25.00;52.95;101898.72;4995623;28;45450;-87
2022/07/21 09:16:56;;;;;;;;;24.25;19.25;;;;;24.90;52.94;101900.34;4978473;28;45539;-87
2022/07/21 09:19:25;;;;;;;;;21.50;15.75;;;;;24.81;53.45;101919.63;4962079;28;45677;-86
2022/07/21 09:21:53;;;;;;;;;26.25;20.50;;;;;24.75;53.55;101906.75;4977833;28;47680;-87
2022/07/21 09:24:20;;;;;;;;;25.50;22.50;;;;;24.81;53.68;101903.66;4971231;28;45519;-87
2022/07/21 09:27:07;;;;;;;;;23.00;18.75;;;;;24.93;53.87;101900.13;4995240;28;45528;-87
2022/07/21 09:29:53;;;;;;;;;24.25;19.25;;;;;25.02;53.65;101902.13;4978022;28;45573;-86
2022/07/21 09:32:27;;;;;;;;;24.50;20.25;;;;;25.14;53.48;101904.88;4987155;28;47331;-87
2022/07/21 09:35:05;;;;;;;;;21.00;16.75;;;;;25.17;52.82;101912.66;5015454;28;45377;-87
2022/07/21 09:37:32;;;;;;;;;23.00;17.50;;;;;25.08;52.91;101909.66;4973285;28;45584;-87
2022/07/21 09:40:00;;;;;;;;;20.50;17.25;;;;;25.14;52.62;101918.19;4961252;28;45481;-87
2022/07/21 09:42:30;;;;;;;;;24.00;19.50;;;;;25.11;52.53;101911.25;4977921;28;46470;-84
2022/07/21 09:45:00;;;;;;;;;19.00;16.25;;;;;25.25;52.43;101910.28;4980509;28;46004;-85
2022/07/21 09:47:27;;;;;;;;;23.50;18.75;;;;;25.38;52.04;101912.91;4968713;28;45552;-86
2022/07/21 09:49:53;;;;;;;;;18.25;17.00;;;;;25.53;51.90;101914.44;4991464;28;45482;-87
2022/07/21 09:52:20;;;;;;;;;20.25;16.00;;;;;25.58;51.72;101914.97;4993653;28;46529;-87
2022/07/21 09:54:46;;;;;;;;;19.50;17.25;;;;;25.61;51.73;101906.75;4977377;28;45856;-85
2022/07/21 09:57:11;;;;;;;;;20.50;18.75;;;;;25.65;51.84;101902.88;4976933;28;45548;-87
2022/07/21 09:59:38;;;;;;;;;20.00;18.25;;;;;25.77;51.42;101913.59;4995261;28;45439;-89
2022/07/21 10:02:04;;;;;;;;;22.50;18.75;;;;;25.88;51.28;101903.81;4976747;28;46239;-86
2022/07/21 10:04:30;;;;;;;;;23.00;18.50;;;;;25.99;50.60;101900.38;4975307;28;65290;-87
2022/07/21 10:06:56;;;;;;;;;20.75;15.75;;;;;26.05;50.78;101899.03;4975373;28;69433;-89
2022/07/21 10:09:21;;;;;;;;;17.75;15.75;;;;;26.17;50.53;101892.78;4976604;28;67164;-87
2022/07/21 10:11:46;;;;;;;;;17.50;15.50;;;;;26.32;50.33;101897.88;4975914;28;75643;-86
2022/07/21 10:14:12;;;;;;;;;21.50;17.25;;;;;26.41;49.94;101903.38;4974225;28;45669;-88
2022/07/21 10:16:38;;;;;;;;;20.50;14.50;;;;;26.38;49.45;101892.09;4956587;28;45448;-86
2022/07/21 10:19:32;;;;;;;;;18.50;14.75;;;;;26.47;49.56;101902.03;4996416;28;45467;-86
2022/07/21 10:22:22;;;;;;;;;20.75;16.75;;;;;26.48;49.40;101900.22;4982365;28;45769;-88
2022/07/21 10:24:47;;;;;;;;;19.50;15.00;;;;;26.52;49.56;101899.84;4970220;28;46010;-85
2022/07/21 10:27:14;;;;;;;;;19.00;15.00;;;;;26.64;49.28;101908.75;4984333;28;68318;-85
2022/07/21 10:29:49;;;;;;;;;18.75;16.00;;;;;26.67;49.06;101903.19;4976010;28;45699;-84
2022/07/21 10:32:16;;;;;;;;;17.75;14.25;;;;;26.57;48.99;101900.34;4994431;28;47599;-86
2022/07/21 10:34:42;;;;;;;;;16.00;14.25;;;;;26.54;48.98;101895.25;4995072;28;45939;-88
2022/07/21 10:37:08;;;;;;;;;16.75;15.00;;;;;26.58;48.53;101903.88;4994916;28;45397;-86
2022/07/21 10:39:34;;;;;;;;;18.75;15.50;;;;;26.69;48.88;101890.56;4994215;28;45539;-87
2022/07/21 10:42:02;;;;;;;;;20.00;16.25;;;;;26.88;48.44;101889.94;4976324;28;45576;-87
2022/07/21 10:44:28;;;;;;;;;16.25;15.00;;;;;26.91;48.12;101899.50;4994187;28;46056;-87
2022/07/21 10:47:06;;;;;;;;;16.33;14.00;;;;;26.91;48.22;101900.34;4994168;28;45397;-88
2022/07/21 10:49:52;;;;;;;;;17.25;15.00;;;;;26.94;48.10;101902.78;4974473;28;45430;-88
2022/07/21 10:52:39;;;;;;;;;17.00;14.00;;;;;26.98;48.16;101906.91;4990527;28;47341;-86
2022/07/21 10:55:16;;;;;;;;;15.75;14.25;;;;;27.18;47.51;101909.81;4994879;28;45353;-88
2022/07/21 10:57:43;;;;;;;;;12.25;11.75;;;;;27.46;47.28;101904.91;4989482;28;45457;-87
2022/07/21 11:00:17;;;;;;;;;15.50;13.25;;;;;27.60;46.43;101904.63;4994326;28;45447;-87
2022/07/21 11:02:46;;;;;;;;;15.75;15.00;;;;;27.61;46.24;101903.63;4993877;28;45444;-86
2022/07/21 11:05:12;;;;;;;;;18.00;15.25;;;;;27.51;45.53;101900.88;4994089;28;45407;-90
2022/07/21 11:08:16;;;;;;;;;20.00;14.00;;;;;27.64;46.27;101899.84;4994533;28;45551;-88
2022/07/21 11:10:44;;;;;;;;;16.50;14.25;;;;;27.72;46.05;101905.41;4991091;28;45477;-86
2022/07/21 11:13:10;;;;;;;;;14.00;13.25;;;;;27.73;45.47;101899.06;4976482;28;46364;-87
2022/07/21 11:15:56;;;;;;;;;15.25;13.00;;;;;27.78;45.83;101900.38;4959855;28;45791;-86